sensor_id;sensor_type;location;lat;lon;timestamp;temperature;humidity
40808;DHT22;26523;52.504;13.498;2022-08-21T00:01:58;19.70;99.90
40808;DHT22;26523;52.504;13.498;2022-08-21T00:04:23;19.60;99.90
40808;DHT22;26523;52.504;13.498;2022-08-21T00:06:50;19.60;99.90
40808;DHT22;26523;52.504;13.498;2022-08-21T00:09:17;19.60;99.90
40808;DHT22;26523;52.504;13.498;2022-08-21T00:11:43;19.50;99.90
40808;DHT22;26523;52.504;13.498;2022-08-21T00:14:10;19.40;99.90
40808;DHT22;26523;52.504;13.498;2022-08-21T00:16:36;19.40;99.90
40808;DHT22;26523;52.504;13.498;2022-08-21T00:19:02;19.50;99.90
40808;DHT22;26523;52.504;13.498;2022-08-21T00:21:28;19.40;99.90
40808;DHT22;26523;52.504;13.498;2022-08-21T00:23:54;19.40;99.90
40808;DHT22;26523;52.504;13.498;2022-08-21T00:26:20;19.30;99.90
40808;DHT22;26523;52.504;13.498;2022-08-21T00:28:45;19.40;99.90
40808;DHT22;26523;52.504;13.498;2022-08-21T00:31:12;19.40;99.90
40808;DHT22;26523;52.504;13.498;2022-08-21T00:33:37;19.30;99.90
40808;DHT22;26523;52.504;13.498;2022-08-21T00:36:03;19.30;99.90
40808;DHT22;26523;52.504;13.498;2022-08-21T00:38:29;19.30;99.90
40808;DHT22;26523;52.504;13.498;2022-08-21T00:41:00;19.30;99.90
40808;DHT22;26523;52.504;13.498;2022-08-21T00:43:29;19.30;99.90
40808;DHT22;26523;52.504;13.498;2022-08-21T00:45:56;19.30;99.90
40808;DHT22;26523;52.504;13.498;2022-08-21T00:48:22;19.30;99.90
40808;DHT22;26523;52.504;13.498;2022-08-21T00:51:36;19.20;99.90
40808;DHT22;26523;52.504;13.498;2022-08-21T00:53:38;19.30;99.90
40808;DHT22;26523;52.504;13.498;2022-08-21T00:56:05;19.20;99.90
40808;DHT22;26523;52.504;13.498;2022-08-21T00:58:33;19.20;99.90
40808;DHT22;26523;52.504;13.498;2022-08-21T01:01:03;19.20;99.90
40808;DHT22;26523;52.504;13.498;2022-08-21T01:03:29;19.10;99.90
40808;DHT22;26523;52.504;13.498;2022-08-21T01:05:54;19.20;99.90
40808;DHT22;26523;52.504;13.498;2022-08-21T01:08:21;19.20;99.90
40808;DHT22;26523;52.504;13.498;2022-08-21T01:10:47;19.20;99.90
40808;DHT22;26523;52.504;13.498;2022-08-21T01:13:16;19.20;99.90
40808;DHT22;26523;52.504;13.498;2022-08-21T01:15:46;19.10;99.90
40808;DHT22;26523;52.504;13.498;2022-08-21T01:18:14;19.10;99.90
40808;DHT22;26523;52.504;13.498;2022-08-21T01:23:15;19.10;99.90
40808;DHT22;26523;52.504;13.498;2022-08-21T01:25:40;19.10;99.90
40808;DHT22;26523;52.504;13.498;2022-08-21T01:28:13;19.10;99.90
40808;DHT22;26523;52.504;13.498;2022-08-21T01:30:40;19.10;99.90
40808;DHT22;26523;52.504;13.498;2022-08-21T01:33:07;19.00;99.90
40808;DHT22;26523;52.504;13.498;2022-08-21T01:35:33;19.00;99.90
40808;DHT22;26523;52.504;13.498;2022-08-21T01:37:58;19.00;99.90
40808;DHT22;26523;52.504;13.498;2022-08-21T01:40:24;19.00;99.90
40808;DHT22;26523;52.504;13.498;2022-08-21T01:42:50;19.00;99.90
40808;DHT22;26523;52.504;13.498;2022-08-21T01:45:16;19.00;99.90
40808;DHT22;26523;52.504;13.498;2022-08-21T01:47:43;19.00;99.90
40808;DHT22;26523;52.504;13.498;2022-08-21T01:50:12;19.00;99.90
40808;DHT22;26523;52.504;13.498;2022-08-21T01:52:38;18.90;99.90
40808;DHT22;26523;52.504;13.498;2022-08-21T01:55:09;18.90;99.90
40808;DHT22;26523;52.504;13.498;2022-08-21T01:57:35;18.80;99.90
40808;DHT22;26523;52.504;13.498;2022-08-21T02:00:01;18.90;99.90
40808;DHT22;26523;52.504;13.498;2022-08-21T02:02:26;18.90;99.90
40808;DHT22;26523;52.504;13.498;2022-08-21T02:04:52;18.80;99.90
40808;DHT22;26523;52.504;13.498;2022-08-21T02:07:18;18.80;99.90
40808;DHT22;26523;52.504;13.498;2022-08-21T02:09:44;18.80;99.90
40808;DHT22;26523;52.504;13.498;2022-08-21T02:12:10;18.80;99.90
40808;DHT22;26523;52.504;13.498;2022-08-21T02:14:37;18.80;99.90
40808;DHT22;26523;52.504;13.498;2022-08-21T02:17:04;18.80;99.90
40808;DHT22;26523;52.504;13.498;2022-08-21T02:19:29;18.80;99.90
40808;DHT22;26523;52.504;13.498;2022-08-21T02:21:55;18.80;99.90
40808;DHT22;26523;52.504;13.498;2022-08-21T02:24:21;18.70;99.90
40808;DHT22;26523;52.504;13.498;2022-08-21T02:26:46;18.60;99.90
40808;DHT22;26523;52.504;13.498;2022-08-21T02:29:12;18.50;99.90
40808;DHT22;26523;52.504;13.498;2022-08-21T02:31:38;18.50;99.90
40808;DHT22;26523;52.504;13.498;2022-08-21T02:34:03;18.50;99.90
40808;DHT22;26523;52.504;13.498;2022-08-21T02:36:29;18.40;99.90
40808;DHT22;26523;52.504;13.498;2022-08-21T02:38:55;18.50;99.90
40808;DHT22;26523;52.504;13.498;2022-08-21T02:41:22;18.40;99.90
40808;DHT22;26523;52.504;13.498;2022-08-21T02:43:48;18.40;99.90
40808;DHT22;26523;52.504;13.498;2022-08-21T02:46:16;18.40;99.90
40808;DHT22;26523;52.504;13.498;2022-08-21T02:48:43;18.40;99.90
40808;DHT22;26523;52.504;13.498;2022-08-21T02:51:15;18.40;99.90
40808;DHT22;26523;52.504;13.498;2022-08-21T02:53:41;18.40;99.90
40808;DHT22;26523;52.504;13.498;2022-08-21T02:56:09;18.30;99.90
40808;DHT22;26523;52.504;13.498;2022-08-21T02:58:39;18.20;99.90
40808;DHT22;26523;52.504;13.498;2022-08-21T03:01:07;18.20;99.90
40808;DHT22;26523;52.504;13.498;2022-08-21T03:03:36;18.20;99.90
40808;DHT22;26523;52.504;13.498;2022-08-21T03:06:04;18.20;99.90
40808;DHT22;26523;52.504;13.498;2022-08-21T03:08:29;18.20;99.90
40808;DHT22;26523;52.504;13.498;2022-08-21T03:10:55;18.20;99.90
40808;DHT22;26523;52.504;13.498;2022-08-21T03:13:21;18.10;99.90
40808;DHT22;26523;52.504;13.498;2022-08-21T03:15:48;18.10;99.90
40808;DHT22;26523;52.504;13.498;2022-08-21T03:18:13;18.10;99.90
40808;DHT22;26523;52.504;13.498;2022-08-21T03:20:41;18.10;99.90
40808;DHT22;26523;52.504;13.498;2022-08-21T03:23:07;18.10;99.90
40808;DHT22;26523;52.504;13.498;2022-08-21T03:25:34;18.00;99.90
40808;DHT22;26523;52.504;13.498;2022-08-21T03:28:04;17.90;99.90
40808;DHT22;26523;52.504;13.498;2022-08-21T03:30:31;17.80;99.90
40808;DHT22;26523;52.504;13.498;2022-08-21T03:33:00;17.80;99.90
40808;DHT22;26523;52.504;13.498;2022-08-21T03:35:26;17.80;99.90
40808;DHT22;26523;52.504;13.498;2022-08-21T03:37:53;17.70;99.90
40808;DHT22;26523;52.504;13.498;2022-08-21T03:40:20;17.80;99.90
40808;DHT22;26523;52.504;13.498;2022-08-21T03:42:46;17.70;99.90
40808;DHT22;26523;52.504;13.498;2022-08-21T03:45:13;17.70;99.90
40808;DHT22;26523;52.504;13.498;2022-08-21T03:47:49;17.70;99.90
40808;DHT22;26523;52.504;13.498;2022-08-21T03:50:15;17.70;99.90
40808;DHT22;26523;52.504;13.498;2022-08-21T03:52:42;17.70;99.90
40808;DHT22;26523;52.504;13.498;2022-08-21T03:55:07;17.70;99.90
40808;DHT22;26523;52.504;13.498;2022-08-21T03:57:33;17.60;99.90
40808;DHT22;26523;52.504;13.498;2022-08-21T03:59:59;17.60;99.90
40808;DHT22;26523;52.504;13.498;2022-08-21T04:02:24;17.50;99.90
40808;DHT22;26523;52.504;13.498;2022-08-21T04:04:50;17.50;99.90
40808;DHT22;26523;52.504;13.498;2022-08-21T04:07:16;17.50;99.90
40808;DHT22;26523;52.504;13.498;2022-08-21T04:09:43;17.40;99.90
40808;DHT22;26523;52.504;13.498;2022-08-21T04:12:09;17.40;99.90
40808;DHT22;26523;52.504;13.498;2022-08-21T04:14:35;17.40;99.90
40808;DHT22;26523;52.504;13.498;2022-08-21T04:17:00;17.40;99.90
40808;DHT22;26523;52.504;13.498;2022-08-21T04:19:26;17.30;99.90
40808;DHT22;26523;52.504;13.498;2022-08-21T04:21:52;17.40;99.90
40808;DHT22;26523;52.504;13.498;2022-08-21T04:24:17;17.60;99.90
40808;DHT22;26523;52.504;13.498;2022-08-21T04:26:44;17.60;99.90
40808;DHT22;26523;52.504;13.498;2022-08-21T04:29:10;17.50;99.90
40808;DHT22;26523;52.504;13.498;2022-08-21T04:31:36;17.50;99.90
40808;DHT22;26523;52.504;13.498;2022-08-21T04:34:04;17.50;99.90
40808;DHT22;26523;52.504;13.498;2022-08-21T04:36:31;17.50;99.90
40808;DHT22;26523;52.504;13.498;2022-08-21T04:38:58;17.50;99.90
40808;DHT22;26523;52.504;13.498;2022-08-21T04:41:24;17.50;99.90
40808;DHT22;26523;52.504;13.498;2022-08-21T04:43:49;17.50;99.90
40808;DHT22;26523;52.504;13.498;2022-08-21T04:46:15;17.60;99.90
40808;DHT22;26523;52.504;13.498;2022-08-21T04:48:42;17.60;99.90
40808;DHT22;26523;52.504;13.498;2022-08-21T04:51:32;17.60;99.90
40808;DHT22;26523;52.504;13.498;2022-08-21T04:54:02;17.70;99.90
40808;DHT22;26523;52.504;13.498;2022-08-21T04:59:14;17.80;99.90
40808;DHT22;26523;52.504;13.498;2022-08-21T05:01:41;17.80;99.90
40808;DHT22;26523;52.504;13.498;2022-08-21T05:04:10;17.80;99.90
40808;DHT22;26523;52.504;13.498;2022-08-21T05:06:39;17.90;99.90
40808;DHT22;26523;52.504;13.498;2022-08-21T05:09:06;17.90;99.90
40808;DHT22;26523;52.504;13.498;2022-08-21T05:11:34;17.90;99.90
40808;DHT22;26523;52.504;13.498;2022-08-21T05:14:00;18.00;99.90
40808;DHT22;26523;52.504;13.498;2022-08-21T05:16:26;18.10;99.90
40808;DHT22;26523;52.504;13.498;2022-08-21T05:18:52;18.00;99.90
40808;DHT22;26523;52.504;13.498;2022-08-21T05:21:18;18.00;99.90
40808;DHT22;26523;52.504;13.498;2022-08-21T05:23:44;18.00;99.90
40808;DHT22;26523;52.504;13.498;2022-08-21T05:26:09;18.00;99.90
40808;DHT22;26523;52.504;13.498;2022-08-21T05:28:35;18.00;99.90
40808;DHT22;26523;52.504;13.498;2022-08-21T05:31:01;18.10;99.90
40808;DHT22;26523;52.504;13.498;2022-08-21T05:33:27;18.10;99.90
40808;DHT22;26523;52.504;13.498;2022-08-21T05:35:54;18.10;99.90
40808;DHT22;26523;52.504;13.498;2022-08-21T05:38:21;18.30;99.90
40808;DHT22;26523;52.504;13.498;2022-08-21T05:40:47;18.30;99.90
40808;DHT22;26523;52.504;13.498;2022-08-21T05:43:13;18.40;99.90
40808;DHT22;26523;52.504;13.498;2022-08-21T05:45:39;18.40;99.90
40808;DHT22;26523;52.504;13.498;2022-08-21T05:48:08;18.50;99.90
40808;DHT22;26523;52.504;13.498;2022-08-21T05:50:34;18.50;99.90
40808;DHT22;26523;52.504;13.498;2022-08-21T05:53:00;18.60;99.90
40808;DHT22;26523;52.504;13.498;2022-08-21T05:55:26;18.60;99.90
40808;DHT22;26523;52.504;13.498;2022-08-21T05:57:51;18.70;99.90
40808;DHT22;26523;52.504;13.498;2022-08-21T06:00:17;18.70;99.90
40808;DHT22;26523;52.504;13.498;2022-08-21T06:02:43;18.80;99.90
40808;DHT22;26523;52.504;13.498;2022-08-21T06:05:09;18.80;99.90
40808;DHT22;26523;52.504;13.498;2022-08-21T06:07:34;18.80;99.90
40808;DHT22;26523;52.504;13.498;2022-08-21T06:10:00;18.80;99.90
40808;DHT22;26523;52.504;13.498;2022-08-21T06:12:26;18.80;99.90
40808;DHT22;26523;52.504;13.498;2022-08-21T06:14:52;18.90;99.90
40808;DHT22;26523;52.504;13.498;2022-08-21T06:17:18;19.00;99.90
40808;DHT22;26523;52.504;13.498;2022-08-21T06:19:44;19.10;99.90
40808;DHT22;26523;52.504;13.498;2022-08-21T06:22:09;19.20;99.90
40808;DHT22;26523;52.504;13.498;2022-08-21T06:24:35;19.30;99.90
40808;DHT22;26523;52.504;13.498;2022-08-21T06:27:07;19.40;99.90
40808;DHT22;26523;52.504;13.498;2022-08-21T06:29:34;19.50;99.90
40808;DHT22;26523;52.504;13.498;2022-08-21T06:32:00;19.60;99.90
40808;DHT22;26523;52.504;13.498;2022-08-21T06:34:26;19.70;99.90
40808;DHT22;26523;52.504;13.498;2022-08-21T06:36:51;19.90;99.90
40808;DHT22;26523;52.504;13.498;2022-08-21T06:39:17;20.00;99.90
40808;DHT22;26523;52.504;13.498;2022-08-21T06:41:43;20.10;99.90
40808;DHT22;26523;52.504;13.498;2022-08-21T06:44:09;20.10;99.90
40808;DHT22;26523;52.504;13.498;2022-08-21T06:46:34;20.30;99.90
40808;DHT22;26523;52.504;13.498;2022-08-21T06:49:00;20.40;99.90
40808;DHT22;26523;52.504;13.498;2022-08-21T06:51:26;20.50;99.90
40808;DHT22;26523;52.504;13.498;2022-08-21T06:53:52;20.60;99.90
40808;DHT22;26523;52.504;13.498;2022-08-21T06:56:18;20.80;99.90
40808;DHT22;26523;52.504;13.498;2022-08-21T06:58:44;21.00;99.90
40808;DHT22;26523;52.504;13.498;2022-08-21T07:01:10;21.10;99.90
40808;DHT22;26523;52.504;13.498;2022-08-21T07:03:39;21.30;99.90
40808;DHT22;26523;52.504;13.498;2022-08-21T07:06:06;21.60;99.90
40808;DHT22;26523;52.504;13.498;2022-08-21T07:08:33;21.90;99.90
40808;DHT22;26523;52.504;13.498;2022-08-21T07:11:00;22.20;99.90
40808;DHT22;26523;52.504;13.498;2022-08-21T07:13:27;22.50;99.90
40808;DHT22;26523;52.504;13.498;2022-08-21T07:15:53;22.70;99.90
40808;DHT22;26523;52.504;13.498;2022-08-21T07:18:18;23.00;99.90
40808;DHT22;26523;52.504;13.498;2022-08-21T07:20:44;23.30;99.90
40808;DHT22;26523;52.504;13.498;2022-08-21T07:23:15;23.60;99.90
40808;DHT22;26523;52.504;13.498;2022-08-21T07:25:43;24.00;99.90
40808;DHT22;26523;52.504;13.498;2022-08-21T07:28:09;24.40;99.90
40808;DHT22;26523;52.504;13.498;2022-08-21T07:30:35;24.40;99.90
40808;DHT22;26523;52.504;13.498;2022-08-21T07:33:01;24.30;99.90
40808;DHT22;26523;52.504;13.498;2022-08-21T07:35:26;24.20;99.90
40808;DHT22;26523;52.504;13.498;2022-08-21T07:37:53;24.20;99.90
40808;DHT22;26523;52.504;13.498;2022-08-21T07:40:19;24.20;99.90
40808;DHT22;26523;52.504;13.498;2022-08-21T07:42:46;24.40;99.90
40808;DHT22;26523;52.504;13.498;2022-08-21T07:45:14;24.40;99.90
40808;DHT22;26523;52.504;13.498;2022-08-21T07:47:39;24.30;99.90
40808;DHT22;26523;52.504;13.498;2022-08-21T07:50:06;24.40;99.90
40808;DHT22;26523;52.504;13.498;2022-08-21T07:52:32;24.60;99.90
40808;DHT22;26523;52.504;13.498;2022-08-21T07:54:59;24.70;99.90
40808;DHT22;26523;52.504;13.498;2022-08-21T07:57:25;24.60;99.90
40808;DHT22;26523;52.504;13.498;2022-08-21T07:59:56;24.60;99.90
40808;DHT22;26523;52.504;13.498;2022-08-21T08:02:31;24.80;99.90
40808;DHT22;26523;52.504;13.498;2022-08-21T08:05:01;24.90;99.90
40808;DHT22;26523;52.504;13.498;2022-08-21T08:07:27;25.00;99.90
40808;DHT22;26523;52.504;13.498;2022-08-21T08:09:53;25.10;99.90
40808;DHT22;26523;52.504;13.498;2022-08-21T08:12:22;25.40;99.80
40808;DHT22;26523;52.504;13.498;2022-08-21T08:14:48;25.50;99.90
40808;DHT22;26523;52.504;13.498;2022-08-21T08:17:13;25.50;99.80
40808;DHT22;26523;52.504;13.498;2022-08-21T08:19:39;25.60;99.00
40808;DHT22;26523;52.504;13.498;2022-08-21T08:22:16;25.60;98.60
40808;DHT22;26523;52.504;13.498;2022-08-21T08:24:47;25.70;99.40
40808;DHT22;26523;52.504;13.498;2022-08-21T08:27:14;25.60;98.30
40808;DHT22;26523;52.504;13.498;2022-08-21T08:29:40;25.60;98.20
40808;DHT22;26523;52.504;13.498;2022-08-21T08:32:06;25.70;97.50
40808;DHT22;26523;52.504;13.498;2022-08-21T08:34:36;25.70;96.80
40808;DHT22;26523;52.504;13.498;2022-08-21T08:37:03;26.20;97.50
40808;DHT22;26523;52.504;13.498;2022-08-21T08:39:29;26.40;96.10
40808;DHT22;26523;52.504;13.498;2022-08-21T08:42:19;26.50;96.10
40808;DHT22;26523;52.504;13.498;2022-08-21T08:44:46;26.30;95.40
40808;DHT22;26523;52.504;13.498;2022-08-21T08:47:14;26.50;95.20
40808;DHT22;26523;52.504;13.498;2022-08-21T08:49:55;26.30;93.80
40808;DHT22;26523;52.504;13.498;2022-08-21T08:52:30;26.40;94.40
40808;DHT22;26523;52.504;13.498;2022-08-21T08:55:17;26.20;94.00
40808;DHT22;26523;52.504;13.498;2022-08-21T08:57:46;26.20;94.40
40808;DHT22;26523;52.504;13.498;2022-08-21T09:00:16;25.90;93.90
40808;DHT22;26523;52.504;13.498;2022-08-21T09:02:44;25.70;94.20
40808;DHT22;26523;52.504;13.498;2022-08-21T09:05:21;25.30;94.60
40808;DHT22;26523;52.504;13.498;2022-08-21T09:11:15;25.00;95.70
40808;DHT22;26523;52.504;13.498;2022-08-21T09:21:49;25.00;96.50
40808;DHT22;26523;52.504;13.498;2022-08-21T09:27:04;25.20;95.40
40808;DHT22;26523;52.504;13.498;2022-08-21T09:29:34;25.10;95.40
40808;DHT22;26523;52.504;13.498;2022-08-21T09:32:00;25.00;95.70
40808;DHT22;26523;52.504;13.498;2022-08-21T09:34:30;25.00;96.20
40808;DHT22;26523;52.504;13.498;2022-08-21T09:36:57;25.10;95.50
40808;DHT22;26523;52.504;13.498;2022-08-21T09:39:31;25.00;95.60
40808;DHT22;26523;52.504;13.498;2022-08-21T09:42:02;25.10;95.50
40808;DHT22;26523;52.504;13.498;2022-08-21T09:44:30;24.90;95.40
40808;DHT22;26523;52.504;13.498;2022-08-21T09:46:57;24.80;95.20
40808;DHT22;26523;52.504;13.498;2022-08-21T09:49:34;24.90;94.60
40808;DHT22;26523;52.504;13.498;2022-08-21T09:52:00;24.90;95.30
40808;DHT22;26523;52.504;13.498;2022-08-21T09:54:31;25.10;94.80
40808;DHT22;26523;52.504;13.498;2022-08-21T09:57:01;25.10;94.30
40808;DHT22;26523;52.504;13.498;2022-08-21T09:59:56;25.10;94.80
40808;DHT22;26523;52.504;13.498;2022-08-21T10:02:34;25.00;94.60
40808;DHT22;26523;52.504;13.498;2022-08-21T10:05:07;25.00;94.00
40808;DHT22;26523;52.504;13.498;2022-08-21T10:07:37;25.10;93.70
40808;DHT22;26523;52.504;13.498;2022-08-21T10:10:16;25.30;93.70
40808;DHT22;26523;52.504;13.498;2022-08-21T10:15:47;25.50;93.50
40808;DHT22;26523;52.504;13.498;2022-08-21T10:21:17;25.60;93.40
40808;DHT22;26523;52.504;13.498;2022-08-21T10:29:42;25.50;92.00
40808;DHT22;26523;52.504;13.498;2022-08-21T10:41:01;25.60;92.40
40808;DHT22;26523;52.504;13.498;2022-08-21T10:43:59;25.50;92.40
40808;DHT22;26523;52.504;13.498;2022-08-21T10:52:27;25.90;91.60
40808;DHT22;26523;52.504;13.498;2022-08-21T10:55:03;26.10;91.00
40808;DHT22;26523;52.504;13.498;2022-08-21T10:58:01;26.10;90.90
40808;DHT22;26523;52.504;13.498;2022-08-21T11:00:41;26.20;92.00
40808;DHT22;26523;52.504;13.498;2022-08-21T11:03:33;26.10;91.70
40808;DHT22;26523;52.504;13.498;2022-08-21T11:06:15;26.30;90.80
40808;DHT22;26523;52.504;13.498;2022-08-21T11:08:46;26.20;91.30
40808;DHT22;26523;52.504;13.498;2022-08-21T11:16:24;25.90;91.30
40808;DHT22;26523;52.504;13.498;2022-08-21T11:19:00;26.00;91.10
40808;DHT22;26523;52.504;13.498;2022-08-21T11:21:42;25.70;91.10
40808;DHT22;26523;52.504;13.498;2022-08-21T11:24:30;25.60;91.20
40808;DHT22;26523;52.504;13.498;2022-08-21T11:29:39;25.80;91.00
40808;DHT22;26523;52.504;13.498;2022-08-21T11:35:42;25.60;90.20
40808;DHT22;26523;52.504;13.498;2022-08-21T11:38:33;25.70;90.00
40808;DHT22;26523;52.504;13.498;2022-08-21T11:43:44;25.70;90.20
40808;DHT22;26523;52.504;13.498;2022-08-21T11:46:41;25.70;86.60
40808;DHT22;26523;52.504;13.498;2022-08-21T11:52:24;25.70;89.20
40808;DHT22;26523;52.504;13.498;2022-08-21T11:57:36;25.80;87.80
40808;DHT22;26523;52.504;13.498;2022-08-21T12:02:42;25.90;86.00
40808;DHT22;26523;52.504;13.498;2022-08-21T12:05:20;25.70;86.00
40808;DHT22;26523;52.504;13.498;2022-08-21T12:07:47;25.40;87.50
40808;DHT22;26523;52.504;13.498;2022-08-21T12:10:19;25.60;83.10
40808;DHT22;26523;52.504;13.498;2022-08-21T12:13:06;25.40;82.20
40808;DHT22;26523;52.504;13.498;2022-08-21T12:15:33;25.50;86.80
40808;DHT22;26523;52.504;13.498;2022-08-21T12:18:30;25.40;82.00
40808;DHT22;26523;52.504;13.498;2022-08-21T12:23:58;25.30;83.30
40808;DHT22;26523;52.504;13.498;2022-08-21T12:31:51;25.20;84.30
40808;DHT22;26523;52.504;13.498;2022-08-21T12:34:17;25.10;76.70
40808;DHT22;26523;52.504;13.498;2022-08-21T12:36:49;25.00;80.60
40808;DHT22;26523;52.504;13.498;2022-08-21T12:39:24;25.10;78.20
40808;DHT22;26523;52.504;13.498;2022-08-21T12:41:56;25.20;83.10
40808;DHT22;26523;52.504;13.498;2022-08-21T12:44:38;25.20;82.90
40808;DHT22;26523;52.504;13.498;2022-08-21T12:47:31;25.30;82.10
40808;DHT22;26523;52.504;13.498;2022-08-21T12:53:05;25.60;79.30
40808;DHT22;26523;52.504;13.498;2022-08-21T12:55:33;25.70;80.10
40808;DHT22;26523;52.504;13.498;2022-08-21T12:57:59;25.80;80.80
40808;DHT22;26523;52.504;13.498;2022-08-21T13:00:27;25.70;75.50
40808;DHT22;26523;52.504;13.498;2022-08-21T13:02:55;25.20;75.00
40808;DHT22;26523;52.504;13.498;2022-08-21T13:07:50;25.40;74.40
40808;DHT22;26523;52.504;13.498;2022-08-21T13:10:25;25.50;80.70
40808;DHT22;26523;52.504;13.498;2022-08-21T13:12:56;25.40;81.10
40808;DHT22;26523;52.504;13.498;2022-08-21T13:15:31;25.30;74.70
40808;DHT22;26523;52.504;13.498;2022-08-21T13:17:57;25.30;77.40
40808;DHT22;26523;52.504;13.498;2022-08-21T13:20:34;25.10;79.70
40808;DHT22;26523;52.504;13.498;2022-08-21T13:23:02;25.10;76.00
40808;DHT22;26523;52.504;13.498;2022-08-21T13:25:30;24.90;81.20
40808;DHT22;26523;52.504;13.498;2022-08-21T13:28:08;24.90;78.20
40808;DHT22;26523;52.504;13.498;2022-08-21T13:30:47;24.80;78.60
40808;DHT22;26523;52.504;13.498;2022-08-21T13:33:16;24.80;81.30
40808;DHT22;26523;52.504;13.498;2022-08-21T13:36:17;24.80;84.00
40808;DHT22;26523;52.504;13.498;2022-08-21T13:38:45;24.80;83.90
40808;DHT22;26523;52.504;13.498;2022-08-21T13:41:35;24.90;82.90
40808;DHT22;26523;52.504;13.498;2022-08-21T13:44:22;25.10;80.00
40808;DHT22;26523;52.504;13.498;2022-08-21T13:46:53;25.20;77.90
40808;DHT22;26523;52.504;13.498;2022-08-21T13:49:31;25.40;80.70
40808;DHT22;26523;52.504;13.498;2022-08-21T13:51:58;25.40;81.20
40808;DHT22;26523;52.504;13.498;2022-08-21T13:54:37;25.40;81.90
40808;DHT22;26523;52.504;13.498;2022-08-21T13:57:03;25.40;79.70
40808;DHT22;26523;52.504;13.498;2022-08-21T13:59:35;25.10;78.70
40808;DHT22;26523;52.504;13.498;2022-08-21T14:02:08;25.00;79.40
40808;DHT22;26523;52.504;13.498;2022-08-21T14:04:51;24.70;79.00
40808;DHT22;26523;52.504;13.498;2022-08-21T14:07:26;24.70;83.50
40808;DHT22;26523;52.504;13.498;2022-08-21T14:09:53;24.70;84.10
40808;DHT22;26523;52.504;13.498;2022-08-21T14:12:43;24.70;81.90
40808;DHT22;26523;52.504;13.498;2022-08-21T14:15:13;24.70;83.40
40808;DHT22;26523;52.504;13.498;2022-08-21T14:17:40;24.70;83.40
40808;DHT22;26523;52.504;13.498;2022-08-21T14:20:09;24.60;83.20
40808;DHT22;26523;52.504;13.498;2022-08-21T14:22:46;24.60;83.10
40808;DHT22;26523;52.504;13.498;2022-08-21T14:30:35;24.30;83.50
40808;DHT22;26523;52.504;13.498;2022-08-21T14:33:03;24.20;85.60
40808;DHT22;26523;52.504;13.498;2022-08-21T14:35:29;24.10;86.80
40808;DHT22;26523;52.504;13.498;2022-08-21T14:37:56;24.10;85.80
40808;DHT22;26523;52.504;13.498;2022-08-21T14:40:23;24.10;86.20
40808;DHT22;26523;52.504;13.498;2022-08-21T14:42:50;24.10;86.60
40808;DHT22;26523;52.504;13.498;2022-08-21T14:45:25;24.10;89.00
40808;DHT22;26523;52.504;13.498;2022-08-21T14:47:51;24.10;89.50
40808;DHT22;26523;52.504;13.498;2022-08-21T14:50:17;24.10;85.20
40808;DHT22;26523;52.504;13.498;2022-08-21T14:52:43;24.00;85.10
40808;DHT22;26523;52.504;13.498;2022-08-21T14:55:10;23.90;86.70
40808;DHT22;26523;52.504;13.498;2022-08-21T14:57:47;23.80;85.00
40808;DHT22;26523;52.504;13.498;2022-08-21T15:00:19;23.80;85.30
40808;DHT22;26523;52.504;13.498;2022-08-21T15:02:45;23.90;86.80
40808;DHT22;26523;52.504;13.498;2022-08-21T15:05:12;23.80;84.50
40808;DHT22;26523;52.504;13.498;2022-08-21T15:07:38;23.60;85.00
40808;DHT22;26523;52.504;13.498;2022-08-21T15:10:05;23.70;87.00
40808;DHT22;26523;52.504;13.498;2022-08-21T15:12:31;23.80;87.70
40808;DHT22;26523;52.504;13.498;2022-08-21T15:14:57;23.90;86.80
40808;DHT22;26523;52.504;13.498;2022-08-21T15:17:22;23.90;86.30
40808;DHT22;26523;52.504;13.498;2022-08-21T15:19:48;24.00;87.60
40808;DHT22;26523;52.504;13.498;2022-08-21T15:22:14;24.00;88.70
40808;DHT22;26523;52.504;13.498;2022-08-21T15:24:39;24.10;88.00
40808;DHT22;26523;52.504;13.498;2022-08-21T15:27:07;24.10;87.90
40808;DHT22;26523;52.504;13.498;2022-08-21T15:29:33;24.10;88.80
40808;DHT22;26523;52.504;13.498;2022-08-21T15:32:24;24.00;88.50
40808;DHT22;26523;52.504;13.498;2022-08-21T15:34:54;24.00;88.90
40808;DHT22;26523;52.504;13.498;2022-08-21T15:37:21;24.00;87.90
40808;DHT22;26523;52.504;13.498;2022-08-21T15:39:48;23.90;88.80
40808;DHT22;26523;52.504;13.498;2022-08-21T15:42:13;23.90;89.40
40808;DHT22;26523;52.504;13.498;2022-08-21T15:44:40;23.80;88.70
40808;DHT22;26523;52.504;13.498;2022-08-21T15:47:09;23.80;88.40
40808;DHT22;26523;52.504;13.498;2022-08-21T15:49:35;23.70;89.80
40808;DHT22;26523;52.504;13.498;2022-08-21T15:52:01;23.60;89.70
40808;DHT22;26523;52.504;13.498;2022-08-21T15:54:27;23.50;90.00
40808;DHT22;26523;52.504;13.498;2022-08-21T15:56:52;23.40;90.30
40808;DHT22;26523;52.504;13.498;2022-08-21T15:59:20;23.40;90.50
40808;DHT22;26523;52.504;13.498;2022-08-21T16:01:51;23.30;90.00
40808;DHT22;26523;52.504;13.498;2022-08-21T16:04:26;23.20;90.80
40808;DHT22;26523;52.504;13.498;2022-08-21T16:06:52;23.00;91.40
40808;DHT22;26523;52.504;13.498;2022-08-21T16:09:18;23.00;91.20
40808;DHT22;26523;52.504;13.498;2022-08-21T16:11:44;22.90;90.70
40808;DHT22;26523;52.504;13.498;2022-08-21T16:14:15;22.80;91.40
40808;DHT22;26523;52.504;13.498;2022-08-21T16:16:41;22.70;90.70
40808;DHT22;26523;52.504;13.498;2022-08-21T16:19:07;22.60;91.50
40808;DHT22;26523;52.504;13.498;2022-08-21T16:21:34;22.60;92.00
40808;DHT22;26523;52.504;13.498;2022-08-21T16:24:00;22.50;91.80
40808;DHT22;26523;52.504;13.498;2022-08-21T16:26:26;22.40;92.50
40808;DHT22;26523;52.504;13.498;2022-08-21T16:28:54;22.30;92.30
40808;DHT22;26523;52.504;13.498;2022-08-21T16:31:22;22.30;92.40
40808;DHT22;26523;52.504;13.498;2022-08-21T16:33:51;22.20;93.10
40808;DHT22;26523;52.504;13.498;2022-08-21T16:36:17;22.20;92.70
40808;DHT22;26523;52.504;13.498;2022-08-21T16:38:43;22.10;92.80
40808;DHT22;26523;52.504;13.498;2022-08-21T16:41:12;22.00;93.20
40808;DHT22;26523;52.504;13.498;2022-08-21T16:43:41;22.00;93.20
40808;DHT22;26523;52.504;13.498;2022-08-21T16:46:09;22.00;92.90
40808;DHT22;26523;52.504;13.498;2022-08-21T16:48:35;21.90;93.20
40808;DHT22;26523;52.504;13.498;2022-08-21T16:51:01;21.90;93.90
40808;DHT22;26523;52.504;13.498;2022-08-21T16:53:26;21.80;93.00
40808;DHT22;26523;52.504;13.498;2022-08-21T16:55:52;21.80;92.80